sensor_id;sensor_type;location;lat;lon;timestamp;pressure;altitude;pressure_sealevel;temperature;humidity
71764;BME280;59602;52.142;5.408;2023-04-10T00:02:07;102237.25;;;8.55;78.22
71764;BME280;59602;52.142;5.408;2023-04-10T00:04:34;102232.63;;;8.56;78.01
71764;BME280;59602;52.142;5.408;2023-04-10T00:07:01;102223.72;;;8.55;77.94
71764;BME280;59602;52.142;5.408;2023-04-10T00:09:27;102220.66;;;8.57;78.26
71764;BME280;59602;52.142;5.408;2023-04-10T00:11:54;102214.75;;;8.55;78.26
71764;BME280;59602;52.142;5.408;2023-04-10T00:14:23;102221.00;;;8.55;77.55
71764;BME280;59602;52.142;5.408;2023-04-10T00:16:50;102219.53;;;8.58;77.81
71764;BME280;59602;52.142;5.408;2023-04-10T00:19:17;102220.31;;;8.58;77.94
71764;BME280;59602;52.142;5.408;2023-04-10T00:21:43;102212.88;;;8.55;77.27
71764;BME280;59602;52.142;5.408;2023-04-10T00:24:10;102211.72;;;8.56;77.60
71764;BME280;59602;52.142;5.408;2023-04-10T00:26:36;102201.66;;;8.57;77.01
71764;BME280;59602;52.142;5.408;2023-04-10T00:29:03;102202.81;;;8.56;77.19
71764;BME280;59602;52.142;5.408;2023-04-10T00:31:30;102193.44;;;8.53;76.92
71764;BME280;59602;52.142;5.408;2023-04-10T00:33:57;102185.63;;;8.51;76.97
71764;BME280;59602;52.142;5.408;2023-04-10T00:36:24;102187.53;;;8.51;76.77
71764;BME280;59602;52.142;5.408;2023-04-10T00:38:52;102179.41;;;8.51;77.11
71764;BME280;59602;52.142;5.408;2023-04-10T00:41:18;102182.44;;;8.49;76.75
71764;BME280;59602;52.142;5.408;2023-04-10T00:43:45;102169.56;;;8.46;76.53
71764;BME280;59602;52.142;5.408;2023-04-10T00:46:12;102167.19;;;8.45;76.67
71764;BME280;59602;52.142;5.408;2023-04-10T00:48:39;102172.13;;;8.43;76.78
71764;BME280;59602;52.142;5.408;2023-04-10T00:51:06;102164.00;;;8.43;77.03
71764;BME280;59602;52.142;5.408;2023-04-10T00:53:32;102163.22;;;8.42;76.84
71764;BME280;59602;52.142;5.408;2023-04-10T00:56:00;102173.59;;;8.40;76.62
71764;BME280;59602;52.142;5.408;2023-04-10T00:58:27;102167.69;;;8.38;76.77
71764;BME280;59602;52.142;5.408;2023-04-10T01:00:54;102154.13;;;8.38;75.91
71764;BME280;59602;52.142;5.408;2023-04-10T01:03:22;102157.63;;;8.39;75.95
71764;BME280;59602;52.142;5.408;2023-04-10T01:06:11;102157.63;;;8.39;75.87
71764;BME280;59602;52.142;5.408;2023-04-10T01:11:23;102154.34;;;8.33;76.33
71764;BME280;59602;52.142;5.408;2023-04-10T01:14:02;102157.84;;;8.34;76.98
71764;BME280;59602;52.142;5.408;2023-04-10T01:16:35;102155.44;;;8.32;76.46
71764;BME280;59602;52.142;5.408;2023-04-10T01:19:23;102147.31;;;8.32;76.39
71764;BME280;59602;52.142;5.408;2023-04-10T01:21:53;102144.97;;;8.30;76.55
71764;BME280;59602;52.142;5.408;2023-04-10T01:24:40;102139.19;;;8.32;76.18
71764;BME280;59602;52.142;5.408;2023-04-10T01:29:45;102129.59;;;8.35;76.32
71764;BME280;59602;52.142;5.408;2023-04-10T01:32:16;102128.81;;;8.34;76.82
71764;BME280;59602;52.142;5.408;2023-04-10T01:34:49;102123.38;;;8.34;76.07
71764;BME280;59602;52.142;5.408;2023-04-10T01:37:26;102121.00;;;8.32;76.45
71764;BME280;59602;52.142;5.408;2023-04-10T01:39:58;102120.22;;;8.32;76.30
71764;BME280;59602;52.142;5.408;2023-04-10T01:42:27;102120.09;;;8.28;75.89
71764;BME280;59602;52.142;5.408;2023-04-10T01:44:57;102116.94;;;8.26;75.86
71764;BME280;59602;52.142;5.408;2023-04-10T01:47:25;102113.09;;;8.27;76.16
71764;BME280;59602;52.142;5.408;2023-04-10T01:49:53;102108.81;;;8.26;76.08
71764;BME280;59602;52.142;5.408;2023-04-10T01:52:22;102103.38;;;8.26;75.72
71764;BME280;59602;52.142;5.408;2023-04-10T01:54:50;102105.41;;;8.29;75.59
71764;BME280;59602;52.142;5.408;2023-04-10T01:57:17;102105.09;;;8.31;76.09
71764;BME280;59602;52.142;5.408;2023-04-10T01:59:45;102104.31;;;8.30;75.29
71764;BME280;59602;52.142;5.408;2023-04-10T02:02:12;102103.50;;;8.30;75.76
71764;BME280;59602;52.142;5.408;2023-04-10T02:04:39;102093.91;;;8.32;75.39
71764;BME280;59602;52.142;5.408;2023-04-10T02:07:28;102095.50;;;8.34;75.51
71764;BME280;59602;52.142;5.408;2023-04-10T02:10:08;102091.66;;;8.35;75.70
71764;BME280;59602;52.142;5.408;2023-04-10T02:12:51;102094.38;;;8.35;75.48
71764;BME280;59602;52.142;5.408;2023-04-10T02:15:22;102094.03;;;8.36;75.68
71764;BME280;59602;52.142;5.408;2023-04-10T02:17:50;102094.50;;;8.38;75.85
71764;BME280;59602;52.142;5.408;2023-04-10T02:20:18;102095.91;;;8.44;75.70
71764;BME280;59602;52.142;5.408;2023-04-10T02:22:45;102097.50;;;8.45;75.37
71764;BME280;59602;52.142;5.408;2023-04-10T02:25:13;102088.72;;;8.48;75.33
71764;BME280;59602;52.142;5.408;2023-04-10T02:27:40;102084.06;;;8.49;75.02
71764;BME280;59602;52.142;5.408;2023-04-10T02:30:07;102085.19;;;8.48;75.42
71764;BME280;59602;52.142;5.408;2023-04-10T02:32:34;102078.31;;;8.50;75.35
71764;BME280;59602;52.142;5.408;2023-04-10T02:35:02;102079.44;;;8.49;75.34
71764;BME280;59602;52.142;5.408;2023-04-10T02:37:30;102082.94;;;8.50;75.51
71764;BME280;59602;52.142;5.408;2023-04-10T02:39:57;102090.41;;;8.53;75.57
71764;BME280;59602;52.142;5.408;2023-04-10T02:42:23;102090.75;;;8.51;76.01
71764;BME280;59602;52.142;5.408;2023-04-10T02:44:50;102088.34;;;8.50;75.98
71764;BME280;59602;52.142;5.408;2023-04-10T02:47:17;102084.41;;;8.47;76.19
71764;BME280;59602;52.142;5.408;2023-04-10T02:49:44;102083.28;;;8.48;76.00
71764;BME280;59602;52.142;5.408;2023-04-10T02:52:10;102082.47;;;8.48;76.06
71764;BME280;59602;52.142;5.408;2023-04-10T02:54:37;102078.19;;;8.47;75.78
71764;BME280;59602;52.142;5.408;2023-04-10T02:57:04;102087.13;;;8.47;76.19
71764;BME280;59602;52.142;5.408;2023-04-10T02:59:31;102080.91;;;8.47;75.75
71764;BME280;59602;52.142;5.408;2023-04-10T03:01:58;102085.88;;;8.45;75.75
71764;BME280;59602;52.142;5.408;2023-04-10T03:04:25;102092.75;;;8.42;75.45
71764;BME280;59602;52.142;5.408;2023-04-10T03:06:51;102092.75;;;8.42;75.76
71764;BME280;59602;52.142;5.408;2023-04-10T03:09:18;102097.38;;;8.42;75.66
71764;BME280;59602;52.142;5.408;2023-04-10T03:11:44;102096.72;;;8.45;75.87
71764;BME280;59602;52.142;5.408;2023-04-10T03:14:11;102093.88;;;8.41;75.62
71764;BME280;59602;52.142;5.408;2023-04-10T03:16:38;102086.38;;;8.38;75.82
71764;BME280;59602;52.142;5.408;2023-04-10T03:19:04;102089.88;;;8.39;75.74
71764;BME280;59602;52.142;5.408;2023-04-10T03:21:31;102091.34;;;8.36;76.10
71764;BME280;59602;52.142;5.408;2023-04-10T03:23:58;102082.75;;;8.34;76.71
71764;BME280;59602;52.142;5.408;2023-04-10T03:26:25;102090.09;;;8.34;76.51
71764;BME280;59602;52.142;5.408;2023-04-10T03:28:53;102088.84;;;8.31;76.49
71764;BME280;59602;52.142;5.408;2023-04-10T03:31:19;102083.75;;;8.29;76.88
71764;BME280;59602;52.142;5.408;2023-04-10T03:33:46;102082.63;;;8.30;76.92
71764;BME280;59602;52.142;5.408;2023-04-10T03:36:13;102078.31;;;8.29;76.77
71764;BME280;59602;52.142;5.408;2023-04-10T03:38:40;102085.22;;;8.27;76.71
71764;BME280;59602;52.142;5.408;2023-04-10T03:41:06;102073.91;;;8.25;76.78
71764;BME280;59602;52.142;5.408;2023-04-10T03:43:33;102075.03;;;8.24;76.50
71764;BME280;59602;52.142;5.408;2023-04-10T03:46:00;102073.44;;;8.23;76.75
71764;BME280;59602;52.142;5.408;2023-04-10T03:48:27;102071.41;;;8.20;76.99
71764;BME280;59602;52.142;5.408;2023-04-10T03:50:55;102063.16;;;8.16;76.69
71764;BME280;59602;52.142;5.408;2023-04-10T03:53:23;102063.16;;;8.16;77.13
71764;BME280;59602;52.142;5.408;2023-04-10T03:55:49;102070.03;;;8.14;77.00
71764;BME280;59602;52.142;5.408;2023-04-10T03:58:17;102068.41;;;8.13;77.29
71764;BME280;59602;52.142;5.408;2023-04-10T04:00:45;102062.56;;;8.10;77.20
71764;BME280;59602;52.142;5.408;2023-04-10T04:03:11;102055.69;;;8.13;76.60
71764;BME280;59602;52.142;5.408;2023-04-10T04:05:39;102047.88;;;8.11;76.85
71764;BME280;59602;52.142;5.408;2023-04-10T04:08:05;102042.16;;;8.13;77.04
71764;BME280;59602;52.142;5.408;2023-04-10T04:10:32;102037.84;;;8.12;76.62
71764;BME280;59602;52.142;5.408;2023-04-10T04:12:59;102032.41;;;8.12;77.23
71764;BME280;59602;52.142;5.408;2023-04-10T04:15:25;102038.97;;;8.11;77.76
71764;BME280;59602;52.142;5.408;2023-04-10T04:17:52;102035.81;;;8.09;77.54
71764;BME280;59602;52.142;5.408;2023-04-10T04:20:19;102036.91;;;8.08;77.68
71764;BME280;59602;52.142;5.408;2023-04-10T04:22:46;102034.56;;;8.06;77.47
71764;BME280;59602;52.142;5.408;2023-04-10T04:25:12;102038.38;;;8.05;78.36
71764;BME280;59602;52.142;5.408;2023-04-10T04:27:39;102040.63;;;8.03;77.53
71764;BME280;59602;52.142;5.408;2023-04-10T04:30:06;102039.84;;;8.03;77.96
71764;BME280;59602;52.142;5.408;2023-04-10T04:32:33;102042.44;;;7.99;77.57
71764;BME280;59602;52.142;5.408;2023-04-10T04:34:59;102038.13;;;7.98;76.93
71764;BME280;59602;52.142;5.408;2023-04-10T04:37:26;102032.25;;;7.96;77.04
71764;BME280;59602;52.142;5.408;2023-04-10T04:39:53;102028.44;;;7.97;76.88
71764;BME280;59602;52.142;5.408;2023-04-10T04:42:19;102025.72;;;7.97;77.10
71764;BME280;59602;52.142;5.408;2023-04-10T04:44:48;102032.72;;;7.98;77.29
71764;BME280;59602;52.142;5.408;2023-04-10T04:47:14;102012.97;;;7.98;77.12
71764;BME280;59602;52.142;5.408;2023-04-10T04:49:42;102018.38;;;7.98;77.04
71764;BME280;59602;52.142;5.408;2023-04-10T04:52:08;102021.09;;;7.98;77.37
71764;BME280;59602;52.142;5.408;2023-04-10T04:54:36;102014.88;;;7.97;77.13
71764;BME280;59602;52.142;5.408;2023-04-10T04:57:02;102017.25;;;7.99;76.88
71764;BME280;59602;52.142;5.408;2023-04-10T04:59:29;102025.38;;;7.99;77.51
71764;BME280;59602;52.142;5.408;2023-04-10T05:01:56;102020.63;;;7.96;76.90
71764;BME280;59602;52.142;5.408;2023-04-10T05:04:23;102028.75;;;7.96;76.93
71764;BME280;59602;52.142;5.408;2023-04-10T05:06:50;102023.66;;;7.94;77.23
71764;BME280;59602;52.142;5.408;2023-04-10T05:09:16;102019.03;;;7.95;76.94
71764;BME280;59602;52.142;5.408;2023-04-10T05:11:43;102012.03;;;7.94;77.53
71764;BME280;59602;52.142;5.408;2023-04-10T05:14:11;102008.66;;;7.97;76.92
71764;BME280;59602;52.142;5.408;2023-04-10T05:16:37;102004.06;;;7.97;77.11
71764;BME280;59602;52.142;5.408;2023-04-10T05:19:04;102009.13;;;7.99;77.31
71764;BME280;59602;52.142;5.408;2023-04-10T05:21:31;102012.28;;;8.01;77.02
71764;BME280;59602;52.142;5.408;2023-04-10T05:23:58;102012.75;;;8.03;76.67
71764;BME280;59602;52.142;5.408;2023-04-10T05:26:24;102018.63;;;8.05;76.92
71764;BME280;59602;52.142;5.408;2023-04-10T05:28:51;102008.56;;;8.05;76.92
71764;BME280;59602;52.142;5.408;2023-04-10T05:31:18;102009.81;;;8.08;76.42
71764;BME280;59602;52.142;5.408;2023-04-10T05:33:45;102007.72;;;8.14;76.94
71764;BME280;59602;52.142;5.408;2023-04-10T05:36:11;101996.56;;;8.15;77.09
71764;BME280;59602;52.142;5.408;2023-04-10T05:38:38;101998.13;;;8.16;76.61
71764;BME280;59602;52.142;5.408;2023-04-10T05:41:06;102002.53;;;8.21;76.76
71764;BME280;59602;52.142;5.408;2023-04-10T05:43:33;102003.00;;;8.23;76.36
71764;BME280;59602;52.142;5.408;2023-04-10T05:45:59;102006.63;;;8.27;76.63
71764;BME280;59602;52.142;5.408;2023-04-10T05:48:26;102003.38;;;8.34;76.45
71764;BME280;59602;52.142;5.408;2023-04-10T05:50:54;102003.16;;;8.39;76.46
71764;BME280;59602;52.142;5.408;2023-04-10T05:53:20;101999.00;;;8.41;76.33
71764;BME280;59602;52.142;5.408;2023-04-10T05:55:49;102000.72;;;8.46;76.34
71764;BME280;59602;52.142;5.408;2023-04-10T05:58:16;101993.84;;;8.48;76.19
71764;BME280;59602;52.142;5.408;2023-04-10T06:00:44;101994.06;;;8.56;76.11
71764;BME280;59602;52.142;5.408;2023-04-10T06:03:11;101999.28;;;8.61;76.76
71764;BME280;59602;52.142;5.408;2023-04-10T06:05:38;101999.84;;;8.66;76.11
71764;BME280;59602;52.142;5.408;2023-04-10T06:08:06;101996.78;;;8.68;75.93
71764;BME280;59602;52.142;5.408;2023-04-10T06:10:33;101996.59;;;8.73;76.35
71764;BME280;59602;52.142;5.408;2023-04-10T06:12:59;101988.22;;;8.78;76.36
71764;BME280;59602;52.142;5.408;2023-04-10T06:15:26;101987.66;;;8.85;75.97
71764;BME280;59602;52.142;5.408;2023-04-10T06:17:53;101980.44;;;8.89;76.33
71764;BME280;59602;52.142;5.408;2023-04-10T06:20:21;101975.09;;;8.92;75.56
71764;BME280;59602;52.142;5.408;2023-04-10T06:22:47;101973.31;;;8.97;75.65
71764;BME280;59602;52.142;5.408;2023-04-10T06:25:14;101968.31;;;8.99;75.89
71764;BME280;59602;52.142;5.408;2023-04-10T06:27:40;101962.34;;;9.05;74.66
71764;BME280;59602;52.142;5.408;2023-04-10T06:30:07;101956.22;;;9.08;74.76
71764;BME280;59602;52.142;5.408;2023-04-10T06:32:34;101956.34;;;9.12;74.42
71764;BME280;59602;52.142;5.408;2023-04-10T06:35:01;101954.97;;;9.18;74.96
71764;BME280;59602;52.142;5.408;2023-04-10T06:37:29;101952.34;;;9.22;75.25
71764;BME280;59602;52.142;5.408;2023-04-10T06:40:04;101945.09;;;9.26;75.11
71764;BME280;59602;52.142;5.408;2023-04-10T06:42:31;101936.38;;;9.32;75.11
71764;BME280;59602;52.142;5.408;2023-04-10T06:44:58;101935.00;;;9.39;74.78
71764;BME280;59602;52.142;5.408;2023-04-10T06:47:25;101934.75;;;9.44;74.32
71764;BME280;59602;52.142;5.408;2023-04-10T06:49:53;101932.69;;;9.53;73.64
71764;BME280;59602;52.142;5.408;2023-04-10T06:52:19;101928.59;;;9.59;73.82
71764;BME280;59602;52.142;5.408;2023-04-10T06:54:46;101919.41;;;9.64;73.95
71764;BME280;59602;52.142;5.408;2023-04-10T06:57:13;101912.94;;;9.68;73.62
71764;BME280;59602;52.142;5.408;2023-04-10T06:59:39;101924.38;;;9.74;72.94
71764;BME280;59602;52.142;5.408;2023-04-10T07:02:06;101913.25;;;9.79;72.54
71764;BME280;59602;52.142;5.408;2023-04-10T07:04:33;101909.94;;;9.86;72.21
71764;BME280;59602;52.142;5.408;2023-04-10T07:06:59;101906.94;;;9.91;71.35
71764;BME280;59602;52.142;5.408;2023-04-10T07:09:27;101907.94;;;9.98;70.86
71764;BME280;59602;52.142;5.408;2023-04-10T07:11:54;101899.19;;;10.05;70.42
71764;BME280;59602;52.142;5.408;2023-04-10T07:14:21;101890.44;;;10.12;70.30
71764;BME280;59602;52.142;5.408;2023-04-10T07:16:48;101887.88;;;10.19;69.39
71764;BME280;59602;52.142;5.408;2023-04-10T07:19:14;101882.63;;;10.26;69.23
71764;BME280;59602;52.142;5.408;2023-04-10T07:21:41;101881.69;;;10.34;67.93
71764;BME280;59602;52.142;5.408;2023-04-10T07:24:08;101870.19;;;10.41;68.19
71764;BME280;59602;52.142;5.408;2023-04-10T07:26:34;101870.78;;;10.50;68.73
71764;BME280;59602;52.142;5.408;2023-04-10T07:29:01;101860.06;;;10.57;67.48
71764;BME280;59602;52.142;5.408;2023-04-10T07:31:30;101858.66;;;10.64;68.12
71764;BME280;59602;52.142;5.408;2023-04-10T07:33:57;101861.19;;;10.72;66.92
71764;BME280;59602;52.142;5.408;2023-04-10T07:36:23;101862.56;;;10.82;66.28
71764;BME280;59602;52.142;5.408;2023-04-10T07:38:52;101859.28;;;10.92;65.56
71764;BME280;59602;52.142;5.408;2023-04-10T07:41:19;101841.16;;;11.00;64.65
71764;BME280;59602;52.142;5.408;2023-04-10T07:43:45;101851.50;;;11.10;64.10
71764;BME280;59602;52.142;5.408;2023-04-10T07:46:13;101852.16;;;11.23;64.59
71764;BME280;59602;52.142;5.408;2023-04-10T07:48:40;101843.38;;;11.33;63.22
71764;BME280;59602;52.142;5.408;2023-04-10T07:51:07;101844.72;;;11.43;63.19
71764;BME280;59602;52.142;5.408;2023-04-10T07:53:35;101836.84;;;11.57;63.18
71764;BME280;59602;52.142;5.408;2023-04-10T07:56:02;101841.41;;;11.73;62.55
71764;BME280;59602;52.142;5.408;2023-04-10T07:58:29;101831.47;;;11.84;60.91
71764;BME280;59602;52.142;5.408;2023-04-10T08:00:57;101829.88;;;11.83;60.37
71764;BME280;59602;52.142;5.408;2023-04-10T08:03:27;101825.53;;;11.78;60.74
71764;BME280;59602;52.142;5.408;2023-04-10T08:05:54;101826.69;;;11.77;61.22
71764;BME280;59602;52.142;5.408;2023-04-10T08:08:20;101823.53;;;11.75;60.04
71764;BME280;59602;52.142;5.408;2023-04-10T08:10:47;101821.81;;;11.67;60.66
71764;BME280;59602;52.142;5.408;2023-04-10T08:13:14;101817.19;;;11.68;61.05
71764;BME280;59602;52.142;5.408;2023-04-10T08:15:41;101817.19;;;11.68;60.46
71764;BME280;59602;52.142;5.408;2023-04-10T08:18:07;101809.00;;;11.68;60.45
71764;BME280;59602;52.142;5.408;2023-04-10T08:20:34;101812.50;;;11.68;60.21
71764;BME280;59602;52.142;5.408;2023-04-10T08:23:02;101812.94;;;11.70;60.03
71764;BME280;59602;52.142;5.408;2023-04-10T08:25:45;101809.59;;;11.80;60.36
71764;BME280;59602;52.142;5.408;2023-04-10T08:28:12;101801.63;;;11.91;59.97
71764;BME280;59602;52.142;5.408;2023-04-10T08:30:39;101818.94;;;12.02;60.05
71764;BME280;59602;52.142;5.408;2023-04-10T08:33:18;101809.25;;;12.05;59.34
71764;BME280;59602;52.142;5.408;2023-04-10T08:35:46;101798.44;;;12.12;59.34
71764;BME280;59602;52.142;5.408;2023-04-10T08:38:14;101791.84;;;12.13;59.82
71764;BME280;59602;52.142;5.408;2023-04-10T08:40:41;101789.22;;;12.20;60.16
71764;BME280;59602;52.142;5.408;2023-04-10T08:43:10;101786.94;;;12.22;59.38
71764;BME280;59602;52.142;5.408;2023-04-10T08:45:39;101784.63;;;12.24;59.51
71764;BME280;59602;52.142;5.408;2023-04-10T08:48:07;101784.63;;;12.24;59.06
71764;BME280;59602;52.142;5.408;2023-04-10T08:50:40;101777.63;;;12.27;60.16
71764;BME280;59602;52.142;5.408;2023-04-10T08:53:10;101776.13;;;12.30;59.82
71764;BME280;59602;52.142;5.408;2023-04-10T08:55:39;101775.69;;;12.28;59.77
71764;BME280;59602;52.142;5.408;2023-04-10T08:58:06;101772.53;;;12.25;59.51
71764;BME280;59602;52.142;5.408;2023-04-10T09:00:37;101771.06;;;12.28;59.63
71764;BME280;59602;52.142;5.408;2023-04-10T09:03:08;101772.19;;;12.27;59.85
71764;BME280;59602;52.142;5.408;2023-04-10T09:05:38;101767.94;;;12.30;59.17
71764;BME280;59602;52.142;5.408;2023-04-10T09:08:06;101769.88;;;12.29;59.25
71764;BME280;59602;52.142;5.408;2023-04-10T09:10:33;101762.19;;;12.35;60.10
71764;BME280;59602;52.142;5.408;2023-04-10T09:12:59;101759.13;;;12.40;60.17
71764;BME280;59602;52.142;5.408;2023-04-10T09:15:27;101750.97;;;12.43;60.30
71764;BME280;59602;52.142;5.408;2023-04-10T09:17:57;101747.53;;;12.46;59.72
71764;BME280;59602;52.142;5.408;2023-04-10T09:20:27;101749.47;;;12.46;59.62
71764;BME280;59602;52.142;5.408;2023-04-10T09:22:54;101744.03;;;12.46;59.93
71764;BME280;59602;52.142;5.408;2023-04-10T09:25:30;101740.88;;;12.44;59.78
71764;BME280;59602;52.142;5.408;2023-04-10T09:28:02;101731.09;;;12.43;59.63
71764;BME280;59602;52.142;5.408;2023-04-10T09:30:32;101727.66;;;12.46;60.29
71764;BME280;59602;52.142;5.408;2023-04-10T09:33:00;101722.63;;;12.52;60.26
71764;BME280;59602;52.142;5.408;2023-04-10T09:35:36;101714.88;;;12.54;59.94
71764;BME280;59602;52.142;5.408;2023-04-10T09:38:17;101713.34;;;12.56;60.29
71764;BME280;59602;52.142;5.408;2023-04-10T09:40:45;101712.97;;;12.58;59.44
71764;BME280;59602;52.142;5.408;2023-04-10T09:43:22;101708.31;;;12.58;59.96
71764;BME280;59602;52.142;5.408;2023-04-10T09:45:52;101702.13;;;12.61;60.31
71764;BME280;59602;52.142;5.408;2023-04-10T09:48:20;101693.97;;;12.65;59.85
71764;BME280;59602;52.142;5.408;2023-04-10T09:50:47;101686.19;;;12.67;60.23
71764;BME280;59602;52.142;5.408;2023-04-10T09:53:16;101680.81;;;12.74;60.07
71764;BME280;59602;52.142;5.408;2023-04-10T09:55:57;101676.25;;;12.85;60.68
71764;BME280;59602;52.142;5.408;2023-04-10T09:58:25;101681.81;;;12.96;60.40
71764;BME280;59602;52.142;5.408;2023-04-10T10:00:52;101666.69;;;13.02;60.39
71764;BME280;59602;52.142;5.408;2023-04-10T10:03:19;101674.16;;;13.09;60.06
71764;BME280;59602;52.142;5.408;2023-04-10T10:05:53;101670.72;;;13.19;59.99
71764;BME280;59602;52.142;5.408;2023-04-10T10:08:22;101669.97;;;13.22;60.15
71764;BME280;59602;52.142;5.408;2023-04-10T10:10:53;101664.53;;;13.26;59.37
71764;BME280;59602;52.142;5.408;2023-04-10T10:13:27;101658.78;;;13.31;59.85
71764;BME280;59602;52.142;5.408;2023-04-10T10:16:05;101661.19;;;13.40;59.54
71764;BME280;59602;52.142;5.408;2023-04-10T10:18:40;101648.72;;;13.46;59.22
71764;BME280;59602;52.142;5.408;2023-04-10T10:21:09;101651.50;;;13.49;59.80
71764;BME280;59602;52.142;5.408;2023-04-10T10:23:44;101646.03;;;13.49;59.07
71764;BME280;59602;52.142;5.408;2023-04-10T10:26:12;101640.59;;;13.53;58.59
71764;BME280;59602;52.142;5.408;2023-04-10T10:28:41;101639.81;;;13.56;58.89
71764;BME280;59602;52.142;5.408;2023-04-10T10:31:14;101625.03;;;13.61;59.07
71764;BME280;59602;52.142;5.408;2023-04-10T10:33:44;101615.69;;;13.65;58.10
71764;BME280;59602;52.142;5.408;2023-04-10T10:36:13;101619.59;;;13.68;58.23
71764;BME280;59602;52.142;5.408;2023-04-10T10:38:47;101607.16;;;13.78;58.25
71764;BME280;59602;52.142;5.408;2023-04-10T10:41:24;101602.53;;;13.89;57.89
71764;BME280;59602;52.142;5.408;2023-04-10T10:44:05;101603.72;;;13.95;57.32
71764;BME280;59602;52.142;5.408;2023-04-10T10:46:39;101602.22;;;14.05;58.82
71764;BME280;59602;52.142;5.408;2023-04-10T10:49:13;101587.38;;;14.09;57.24
71764;BME280;59602;52.142;5.408;2023-04-10T10:51:50;101592.47;;;14.11;56.87
71764;BME280;59602;52.142;5.408;2023-04-10T10:54:28;101588.56;;;14.12;56.90
71764;BME280;59602;52.142;5.408;2023-04-10T10:56:56;101581.16;;;14.20;55.76
71764;BME280;59602;52.142;5.408;2023-04-10T11:02:17;101565.59;;;14.38;56.59
71764;BME280;59602;52.142;5.408;2023-04-10T11:04:45;101567.97;;;14.54;55.97
71764;BME280;59602;52.142;5.408;2023-04-10T11:07:13;101563.31;;;14.65;55.76
71764;BME280;59602;52.142;5.408;2023-04-10T11:09:51;101562.16;;;14.70;54.72
71764;BME280;59602;52.142;5.408;2023-04-10T11:12:23;101546.50;;;14.70;54.74
71764;BME280;59602;52.142;5.408;2023-04-10T11:14:58;101540.63;;;14.76;54.30
71764;BME280;59602;52.142;5.408;2023-04-10T11:17:45;101536.31;;;14.89;54.85
71764;BME280;59602;52.142;5.408;2023-04-10T11:20:12;101526.94;;;15.01;53.92
71764;BME280;59602;52.142;5.408;2023-04-10T11:23:11;101525.00;;;15.01;54.82
71764;BME280;59602;52.142;5.408;2023-04-10T11:26:05;101515.97;;;15.04;54.87
71764;BME280;59602;52.142;5.408;2023-04-10T11:28:37;101511.28;;;15.08;54.65
71764;BME280;59602;52.142;5.408;2023-04-10T11:33:41;101515.59;;;15.09;53.89
71764;BME280;59602;52.142;5.408;2023-04-10T11:36:07;101503.47;;;15.14;54.98
71764;BME280;59602;52.142;5.408;2023-04-10T11:38:34;101515.16;;;15.22;54.59
71764;BME280;59602;52.142;5.408;2023-04-10T11:41:03;101503.03;;;15.15;53.65
71764;BME280;59602;52.142;5.408;2023-04-10T11:43:32;101492.09;;;15.15;54.96
71764;BME280;59602;52.142;5.408;2023-04-10T11:46:02;101485.00;;;15.29;54.77
71764;BME280;59602;52.142;5.408;2023-04-10T11:48:30;101477.16;;;15.42;55.86
71764;BME280;59602;52.142;5.408;2023-04-10T11:51:05;101473.97;;;15.50;54.73
71764;BME280;59602;52.142;5.408;2023-04-10T11:53:32;101470.44;;;15.53;53.90
71764;BME280;59602;52.142;5.408;2023-04-10T11:56:00;101465.34;;;15.55;53.75
71764;BME280;59602;52.142;5.408;2023-04-10T11:58:29;101466.50;;;15.62;53.71
71764;BME280;59602;52.142;5.408;2023-04-10T12:01:01;101467.25;;;15.66;54.36
71764;BME280;59602;52.142;5.408;2023-04-10T12:03:37;101463.69;;;15.76;55.62
71764;BME280;59602;52.142;5.408;2023-04-10T12:06:07;101461.28;;;15.89;55.54
71764;BME280;59602;52.142;5.408;2023-04-10T12:08:39;101451.91;;;15.90;54.15
71764;BME280;59602;52.142;5.408;2023-04-10T12:11:08;101443.69;;;15.83;53.19
71764;BME280;59602;52.142;5.408;2023-04-10T12:13:36;101446.09;;;15.77;53.66
71764;BME280;59602;52.142;5.408;2023-04-10T12:16:05;101436.66;;;15.82;54.63
71764;BME280;59602;52.142;5.408;2023-04-10T12:18:36;101431.56;;;15.84;53.89
71764;BME280;59602;52.142;5.408;2023-04-10T12:21:04;101436.22;;;15.90;54.28
71764;BME280;59602;52.142;5.408;2023-04-10T12:23:36;101426.78;;;15.91;54.83
71764;BME280;59602;52.142;5.408;2023-04-10T12:26:07;101411.91;;;15.92;54.52
71764;BME280;59602;52.142;5.408;2023-04-10T12:28:34;101424.06;;;15.91;54.62
71764;BME280;59602;52.142;5.408;2023-04-10T12:31:02;101406.44;;;15.89;54.35
71764;BME280;59602;52.142;5.408;2023-04-10T12:33:29;101411.16;;;15.85;53.75
71764;BME280;59602;52.142;5.408;2023-04-10T12:35:55;101397.88;;;15.80;54.26
71764;BME280;59602;52.142;5.408;2023-04-10T12:38:40;101395.50;;;15.85;55.03
71764;BME280;59602;52.142;5.408;2023-04-10T12:41:08;101387.28;;;15.85;53.99
71764;BME280;59602;52.142;5.408;2023-04-10T12:43:38;101373.59;;;15.82;53.49
71764;BME280;59602;52.142;5.408;2023-04-10T12:46:06;101381.44;;;15.80;54.28
71764;BME280;59602;52.142;5.408;2023-04-10T12:48:34;101383.84;;;15.74;54.90
71764;BME280;59602;52.142;5.408;2023-04-10T12:51:01;101367.38;;;15.70;54.56
71764;BME280;59602;52.142;5.408;2023-04-10T12:53:27;101361.50;;;15.65;54.52
71764;BME280;59602;52.142;5.408;2023-04-10T12:55:57;101348.63;;;15.62;55.24
71764;BME280;59602;52.142;5.408;2023-04-10T12:58:27;101348.63;;;15.58;54.59
71764;BME280;59602;52.142;5.408;2023-04-10T13:00:56;101348.28;;;15.52;55.28
71764;BME280;59602;52.142;5.408;2023-04-10T13:03:26;101348.72;;;15.47;54.79
71764;BME280;59602;52.142;5.408;2023-04-10T13:05:53;101335.41;;;15.42;55.77
71764;BME280;59602;52.142;5.408;2023-04-10T13:08:23;101327.63;;;15.37;55.27
71764;BME280;59602;52.142;5.408;2023-04-10T13:10:49;101318.63;;;15.33;54.68
71764;BME280;59602;52.142;5.408;2023-04-10T13:13:17;101308.88;;;15.32;55.06
71764;BME280;59602;52.142;5.408;2023-04-10T13:15:44;101306.13;;;15.32;55.24